createdAt,value
2024-01-28T00:00:52.116Z,101687.56
2024-01-28T00:03:40.377Z,101686.33
2024-01-28T00:06:08.412Z,101688.90
2024-01-28T00:08:36.499Z,101691.14
2024-01-28T00:11:04.756Z,101693.52
2024-01-28T00:13:35.604Z,101692.10
2024-01-28T00:16:04.113Z,101696.08
2024-01-28T00:18:32.569Z,101699.85
2024-01-28T00:21:00.597Z,101699.47
2024-01-28T00:23:28.840Z,101698.92
2024-01-28T00:25:58.308Z,101700.46
2024-01-28T00:28:26.428Z,101703.75
2024-01-28T00:30:54.550Z,101705.98
2024-01-28T00:33:23.386Z,101711.01
2024-01-28T00:35:51.430Z,101707.73
2024-01-28T00:38:19.490Z,101704.27
2024-01-28T00:40:47.371Z,101706.69
2024-01-28T00:43:15.511Z,101707.73
2024-01-28T00:45:43.435Z,101715.16
2024-01-28T00:48:11.771Z,101713.80
2024-01-28T00:50:39.766Z,101716.88
2024-01-28T00:53:07.762Z,101720.15
2024-01-28T00:55:35.994Z,101719.45
2024-01-28T00:58:03.975Z,101719.27
2024-01-28T01:00:32.473Z,101716.00
2024-01-28T01:03:00.666Z,101718.77
2024-01-28T01:05:29.241Z,101727.05
2024-01-28T01:07:57.406Z,101727.08
2024-01-28T01:10:27.180Z,101722.95
2024-01-28T01:12:55.362Z,101720.53
2024-01-28T01:15:23.662Z,101726.05
2024-01-28T01:17:52.005Z,101729.33
2024-01-28T01:20:20.826Z,101731.90
2024-01-28T01:22:49.620Z,101730.70
2024-01-28T01:25:17.878Z,101734.85
2024-01-28T01:27:47.087Z,101741.58
2024-01-28T01:30:16.134Z,101747.79
2024-01-28T01:32:44.549Z,101750.55
2024-01-28T01:35:14.452Z,101748.15
2024-01-28T01:37:42.928Z,101746.63
2024-01-28T01:40:15.823Z,101747.49
2024-01-28T01:42:44.823Z,101751.98
2024-01-28T01:45:13.877Z,101755.08
2024-01-28T01:47:42.982Z,101758.17
2024-01-28T01:50:12.608Z,101753.69
2024-01-28T01:52:42.759Z,101754.39
2024-01-28T01:55:12.781Z,101753.19
2024-01-28T01:57:43.680Z,101758.88
2024-01-28T02:00:16.658Z,101757.35
2024-01-28T02:02:48.737Z,101753.23
2024-01-28T02:05:17.367Z,101752.36
2024-01-28T02:07:45.972Z,101758.92
2024-01-28T02:10:14.039Z,101760.50
2024-01-28T02:12:45.203Z,101758.94
2024-01-28T02:15:13.198Z,101760.66
2024-01-28T02:17:41.162Z,101761.69
2024-01-28T02:20:10.018Z,101764.45
2024-01-28T02:22:38.049Z,101771.88
2024-01-28T02:25:07.923Z,101773.25
2024-01-28T02:27:37.354Z,101771.35
2024-01-28T02:30:06.565Z,101773.77
2024-01-28T02:32:34.710Z,101769.10
2024-01-28T02:35:03.020Z,101769.31
2024-01-28T02:37:31.089Z,101769.33
2024-01-28T02:39:59.354Z,101768.69
2024-01-28T02:42:27.483Z,101771.13
2024-01-28T02:44:56.031Z,101775.61
2024-01-28T02:47:24.041Z,101778.71
2024-01-28T02:49:52.236Z,101783.33
2024-01-28T02:52:20.484Z,101786.92
2024-01-28T02:54:48.833Z,101793.48
2024-01-28T02:57:16.804Z,101798.67
2024-01-28T02:59:44.747Z,101805.60
2024-01-28T03:02:13.163Z,101809.77
2024-01-28T03:04:41.147Z,101811.50
2024-01-28T03:07:09.149Z,101806.14
2024-01-28T03:09:37.232Z,101807.36
2024-01-28T03:12:05.783Z,101811.70
2024-01-28T03:14:33.936Z,101812.92
2024-01-28T03:17:03.104Z,101811.39
2024-01-28T03:19:31.609Z,101805.89
2024-01-28T03:21:59.465Z,101806.42
2024-01-28T03:24:27.462Z,101807.64
2024-01-28T03:26:55.503Z,101816.62
2024-01-28T03:29:23.682Z,101820.76
2024-01-28T03:31:51.884Z,101827.64
2024-01-28T03:34:19.976Z,101828.29
2024-01-28T03:36:48.041Z,101826.38
2024-01-28T03:39:16.118Z,101830.50
2024-01-28T03:41:44.391Z,101833.23
2024-01-28T03:44:13.365Z,101832.70
2024-01-28T03:46:41.369Z,101839.77
2024-01-28T03:49:09.566Z,101841.84
2024-01-28T03:51:37.698Z,101839.41
2024-01-28T03:54:05.960Z,101833.67
2024-01-28T03:56:35.654Z,101837.45
2024-01-28T03:59:03.713Z,101834.85
2024-01-28T04:01:34.975Z,101839.16
2024-01-28T04:04:04.004Z,101843.84
2024-01-28T04:06:32.745Z,101841.81
2024-01-28T04:09:00.785Z,101841.66
2024-01-28T04:11:29.176Z,101844.27
2024-01-28T04:13:57.755Z,101846.84
2024-01-28T04:16:27.273Z,101848.58
2024-01-28T04:18:57.093Z,101849.98
2024-01-28T04:21:25.330Z,101850.84
2024-01-28T04:23:53.572Z,101854.30
2024-01-28T04:26:21.689Z,101856.52
2024-01-28T04:28:50.189Z,101861.70
2024-01-28T04:31:18.329Z,101868.96
2024-01-28T04:33:46.485Z,101871.55
2024-01-28T04:36:14.737Z,101874.84
2024-01-28T04:38:42.882Z,101879.32
2024-01-28T04:41:10.996Z,101880.02
2024-01-28T04:43:40.358Z,101883.80
2024-01-28T04:46:08.416Z,101884.84
2024-01-28T04:48:38.326Z,101884.31
2024-01-28T04:51:06.532Z,101882.53
2024-01-28T04:53:34.557Z,101881.63
2024-01-28T04:56:02.592Z,101886.80
2024-01-28T04:58:30.461Z,101882.82
2024-01-28T05:00:58.787Z,101885.91
2024-01-28T05:03:27.361Z,101886.79
2024-01-28T05:05:55.792Z,101887.30
2024-01-28T05:08:23.765Z,101883.50
2024-01-28T05:10:51.876Z,101884.53
2024-01-28T05:13:20.530Z,101887.31
2024-01-28T05:15:49.443Z,101890.08
2024-01-28T05:18:18.079Z,101895.09
2024-01-28T05:20:46.288Z,101900.10
2024-01-28T05:23:14.793Z,101904.59
2024-01-28T05:25:42.988Z,101912.55
2024-01-28T05:28:12.902Z,101914.79
2024-01-28T05:30:41.306Z,101919.67
2024-01-28T05:33:09.615Z,101919.02
2024-01-28T05:35:38.249Z,101923.86
2024-01-28T05:38:06.082Z,101922.84
2024-01-28T05:40:34.146Z,101926.54
2024-01-28T05:43:02.445Z,101929.35
2024-01-28T05:45:30.738Z,101927.64
2024-01-28T05:48:03.504Z,101931.44
2024-01-28T05:50:32.229Z,101933.67
2024-01-28T05:53:00.466Z,101940.71
2024-01-28T05:55:28.653Z,101945.63
2024-01-28T05:57:56.950Z,101947.88
2024-01-28T06:00:25.161Z,101957.30
2024-01-28T06:02:53.559Z,101962.58
2024-01-28T06:05:21.609Z,101963.59
2024-01-28T06:07:49.519Z,101965.92
2024-01-28T06:10:17.837Z,101965.65
2024-01-28T06:12:46.069Z,101968.19
2024-01-28T06:15:14.214Z,101973.69
2024-01-28T06:17:42.314Z,101977.46
2024-01-28T06:20:10.728Z,101978.46
2024-01-28T06:22:38.750Z,101982.76
2024-01-28T06:25:08.509Z,101987.37
2024-01-28T06:27:37.136Z,101989.73
2024-01-28T06:30:06.814Z,101996.61
2024-01-28T06:32:35.394Z,101998.30
2024-01-28T06:35:04.956Z,102001.39
2024-01-28T06:37:32.925Z,101999.98
2024-01-28T06:40:01.428Z,101998.05
2024-01-28T06:42:33.522Z,102000.12
2024-01-28T06:45:01.745Z,101999.77
2024-01-28T06:47:29.950Z,101997.36
2024-01-28T06:49:57.892Z,101998.22
2024-01-28T06:52:26.213Z,101995.09
2024-01-28T06:54:54.413Z,101992.00
2024-01-28T06:57:22.591Z,101997.88
2024-01-28T06:59:50.959Z,102001.71
2024-01-28T07:02:18.911Z,102005.20
2024-01-28T07:04:47.769Z,102010.77
2024-01-28T07:07:16.080Z,102009.06
2024-01-28T07:09:43.996Z,102009.08
2024-01-28T07:12:12.118Z,102011.17
2024-01-28T07:14:41.807Z,102011.36
2024-01-28T07:17:10.795Z,102010.67
2024-01-28T07:19:41.840Z,102020.02
2024-01-28T07:22:12.832Z,102023.52
2024-01-28T07:24:41.732Z,102025.78
2024-01-28T07:27:09.806Z,102029.11
2024-01-28T07:29:38.068Z,102032.21
2024-01-28T07:32:06.331Z,102036.19
2024-01-28T07:34:34.501Z,102039.78
2024-01-28T07:37:02.914Z,102042.86
2024-01-28T07:39:30.984Z,102047.91
2024-01-28T07:42:01.910Z,102046.49
2024-01-28T07:44:30.545Z,102046.11
2024-01-28T07:46:58.647Z,102045.91
2024-01-28T07:49:26.866Z,102047.16
2024-01-28T07:51:55.792Z,102047.68
2024-01-28T07:54:24.153Z,102048.55
2024-01-28T07:56:53.354Z,102056.64
2024-01-28T07:59:21.238Z,102057.49
2024-01-28T08:01:49.864Z,102059.42
2024-01-28T08:04:18.407Z,102063.75
2024-01-28T08:06:46.599Z,102066.73
2024-01-28T08:09:14.980Z,102066.40
2024-01-28T08:11:43.040Z,102065.58
2024-01-28T08:14:11.035Z,102062.33
2024-01-28T08:16:39.091Z,102064.98
2024-01-28T08:19:07.111Z,102066.73
2024-01-28T08:21:35.331Z,102068.09
2024-01-28T08:24:03.605Z,102066.30
2024-01-28T08:26:31.631Z,102067.25
2024-01-28T08:28:59.619Z,102066.63
2024-01-28T08:31:27.797Z,102067.38
2024-01-28T08:33:56.140Z,102070.61
2024-01-28T08:36:24.176Z,102072.77
2024-01-28T08:38:52.390Z,102074.88
2024-01-28T08:41:20.389Z,102077.50
2024-01-28T08:43:48.367Z,102081.55
2024-01-28T08:46:17.614Z,102083.86
2024-01-28T08:48:45.915Z,102082.90
2024-01-28T08:51:13.918Z,102087.79
2024-01-28T08:53:43.766Z,102088.33
2024-01-28T08:56:11.970Z,102096.16
2024-01-28T08:58:39.872Z,102101.77
2024-01-28T09:01:09.515Z,102101.10
2024-01-28T09:03:37.817Z,102098.20
2024-01-28T09:06:07.715Z,102097.52
2024-01-28T09:08:36.300Z,102102.08
2024-01-28T09:11:04.656Z,102107.20
2024-01-28T09:13:32.613Z,102108.67
2024-01-28T09:16:00.906Z,102108.36
2024-01-28T09:18:29.226Z,102113.59
2024-01-28T09:20:57.205Z,102116.54
2024-01-28T09:23:25.728Z,102117.53
2024-01-28T09:25:53.758Z,102120.98
2024-01-28T09:28:21.846Z,102121.67
2024-01-28T09:30:50.039Z,102122.26
2024-01-28T09:33:18.545Z,102118.52
2024-01-28T09:35:48.070Z,102117.98
2024-01-28T09:38:16.336Z,102118.63
2024-01-28T09:40:44.521Z,102111.69
2024-01-28T09:43:22.598Z,102108.96
2024-01-28T09:45:51.737Z,102107.77
2024-01-28T09:48:21.047Z,102106.81
2024-01-28T09:50:49.464Z,102106.70
2024-01-28T09:53:17.772Z,102110.41
2024-01-28T09:55:46.084Z,102112.33
2024-01-28T09:58:14.665Z,102111.48
2024-01-28T10:00:42.975Z,102114.98
2024-01-28T10:03:11.254Z,102114.73
2024-01-28T10:05:39.361Z,102116.58
2024-01-28T10:08:07.657Z,102113.83
2024-01-28T10:10:36.798Z,102115.36
2024-01-28T10:13:05.504Z,102112.38
2024-01-28T10:15:33.712Z,102109.59
2024-01-28T10:18:02.167Z,102111.11
2024-01-28T10:20:31.068Z,102110.22
2024-01-28T10:22:59.757Z,102116.85
2024-01-28T10:25:27.900Z,102120.53
2024-01-28T10:27:55.966Z,102120.52
2024-01-28T10:30:24.229Z,102119.14
2024-01-28T10:32:53.425Z,102119.49
2024-01-28T10:35:21.385Z,102117.77
2024-01-28T10:37:53.978Z,102119.97
2024-01-28T10:40:25.394Z,102119.43
2024-01-28T10:42:57.557Z,102116.31
2024-01-28T10:45:25.982Z,102113.59
2024-01-28T10:47:55.948Z,102117.08
2024-01-28T10:50:29.897Z,102114.64
2024-01-28T10:52:59.745Z,102108.09
2024-01-28T10:55:29.624Z,102110.02
2024-01-28T10:57:58.083Z,102110.86
2024-01-28T11:00:28.516Z,102112.73
2024-01-28T11:03:00.513Z,102118.24
2024-01-28T11:05:30.337Z,102122.36
2024-01-28T11:08:01.549Z,102124.61
2024-01-28T11:10:31.856Z,102124.40
2024-01-28T11:13:03.701Z,102118.15
2024-01-28T11:15:34.831Z,102117.09
2024-01-28T11:18:03.356Z,102111.52
2024-01-28T11:20:34.674Z,102110.78
2024-01-28T11:23:03.710Z,102116.01
2024-01-28T11:25:32.185Z,102114.16
2024-01-28T11:28:03.266Z,102115.78
2024-01-28T11:30:31.798Z,102113.38
2024-01-28T11:33:11.492Z,102112.50
2024-01-28T11:35:45.022Z,102114.90
2024-01-28T11:38:25.570Z,102113.82
2024-01-28T11:41:03.527Z,102110.00
2024-01-28T11:43:31.775Z,102106.52
2024-01-28T11:46:01.100Z,102108.27
2024-01-28T11:48:29.783Z,102104.66
2024-01-28T11:50:58.075Z,102103.81
2024-01-28T11:53:26.106Z,102102.66
2024-01-28T11:55:54.340Z,102102.40
2024-01-28T11:58:22.669Z,102102.55
2024-01-28T12:00:51.557Z,102099.38
2024-01-28T12:03:20.108Z,102095.27
2024-01-28T12:05:48.447Z,102089.05
2024-01-28T12:08:29.384Z,102093.39
2024-01-28T12:11:03.709Z,102102.60
2024-01-28T12:13:33.129Z,102107.13
2024-01-28T12:16:01.527Z,102107.96
2024-01-28T12:18:34.105Z,102104.34
2024-01-28T12:21:02.948Z,102105.73
2024-01-28T12:23:32.435Z,102106.28
2024-01-28T12:26:00.727Z,102103.35
2024-01-28T12:28:29.127Z,102102.51
2024-01-28T12:30:57.186Z,102101.19
2024-01-28T12:33:25.646Z,102099.84
2024-01-28T12:35:53.860Z,102099.70
2024-01-28T12:38:22.300Z,102097.63
2024-01-28T12:40:50.360Z,102093.48
2024-01-28T12:43:18.379Z,102093.52
2024-01-28T12:45:46.722Z,102092.66
2024-01-28T12:48:14.864Z,102096.27
2024-01-28T12:50:43.009Z,102096.38
2024-01-28T12:53:11.601Z,102098.25
2024-01-28T12:55:39.924Z,102099.94
2024-01-28T12:58:08.887Z,102101.34
2024-01-28T13:00:37.534Z,102101.02
2024-01-28T13:03:05.820Z,102101.74
2024-01-28T13:05:34.202Z,102098.87
2024-01-28T13:08:02.549Z,102093.19
2024-01-28T13:10:30.776Z,102097.39
2024-01-28T13:12:58.927Z,102093.05
2024-01-28T13:15:27.533Z,102091.64
2024-01-28T13:17:55.595Z,102096.12
2024-01-28T13:20:24.382Z,102096.09
2024-01-28T13:22:52.967Z,102098.14
2024-01-28T13:25:22.175Z,102102.80
2024-01-28T13:27:50.748Z,102100.52
2024-01-28T13:30:19.235Z,102105.52
2024-01-28T13:32:48.165Z,102111.88
2024-01-28T13:35:17.175Z,102116.85
2024-01-28T13:37:46.061Z,102117.17
2024-01-28T13:40:14.061Z,102120.84
2024-01-28T13:42:42.064Z,102121.90
2024-01-28T13:45:12.999Z,102125.71
2024-01-28T13:47:42.375Z,102126.23
2024-01-28T13:50:10.568Z,102129.38
2024-01-28T13:52:38.985Z,102131.33
2024-01-28T13:55:07.362Z,102136.89
2024-01-28T13:57:35.718Z,102136.38
2024-01-28T14:00:06.789Z,102137.73
2024-01-28T14:02:35.998Z,102136.33
2024-01-28T14:05:08.268Z,102138.41
2024-01-28T14:07:37.776Z,102132.85
2024-01-28T14:10:06.594Z,102129.38
2024-01-28T14:12:34.690Z,102134.92
2024-01-28T14:15:02.803Z,102136.30
2024-01-28T14:17:31.827Z,102132.65
2024-01-28T14:20:00.429Z,102135.56
2024-01-28T14:22:29.756Z,102138.23
2024-01-28T14:24:57.791Z,102139.88
2024-01-28T14:27:26.286Z,102146.05
2024-01-28T14:29:54.474Z,102146.66
2024-01-28T14:32:22.719Z,102144.67
2024-01-28T14:34:51.201Z,102149.80
2024-01-28T14:37:19.402Z,102153.57
2024-01-28T14:39:47.624Z,102157.83
2024-01-28T14:42:15.666Z,102159.83
2024-01-28T14:44:43.615Z,102162.89
2024-01-28T14:47:13.347Z,102168.71
2024-01-28T14:49:41.870Z,102166.42
2024-01-28T14:52:10.016Z,102162.92
2024-01-28T14:54:38.866Z,102161.46
2024-01-28T14:57:08.412Z,102162.09
2024-01-28T14:59:38.321Z,102163.30
2024-01-28T15:02:07.998Z,102161.72
2024-01-28T15:04:36.301Z,102167.73
2024-01-28T15:07:05.285Z,102170.29
2024-01-28T15:09:33.440Z,102173.73
2024-01-28T15:12:01.468Z,102172.42
2024-01-28T15:14:29.627Z,102179.95
2024-01-28T15:16:57.580Z,102178.73
2024-01-28T15:19:26.142Z,102178.71
2024-01-28T15:21:54.382Z,102180.45
2024-01-28T15:24:22.397Z,102185.27
2024-01-28T15:26:50.556Z,102186.31
2024-01-28T15:29:21.014Z,102187.66
2024-01-28T15:31:49.077Z,102191.80
2024-01-28T15:34:17.525Z,102190.52
2024-01-28T15:36:45.810Z,102193.39
2024-01-28T15:39:13.928Z,102202.16
2024-01-28T15:41:42.105Z,102208.16
2024-01-28T15:44:10.542Z,102209.63
2024-01-28T15:46:40.688Z,102213.90
2024-01-28T15:49:09.472Z,102216.45
2024-01-28T15:51:37.528Z,102221.41
2024-01-28T15:54:06.689Z,102225.20
2024-01-28T15:56:38.718Z,102226.04
2024-01-28T15:59:07.561Z,102227.77
2024-01-28T16:01:37.555Z,102231.57
2024-01-28T16:04:05.953Z,102234.91
2024-01-28T16:06:34.416Z,102228.30
2024-01-28T16:09:02.612Z,102228.96
2024-01-28T16:11:30.864Z,102229.77
2024-01-28T16:13:58.868Z,102234.56
2024-01-28T16:16:27.130Z,102238.54
2024-01-28T16:18:56.382Z,102245.98
2024-01-28T16:21:24.544Z,102243.73
2024-01-28T16:23:52.713Z,102247.13
2024-01-28T16:26:20.901Z,102253.14
2024-01-28T16:28:49.081Z,102252.61
2024-01-28T16:31:19.859Z,102251.79
2024-01-28T16:33:47.934Z,102257.80
2024-01-28T16:36:17.596Z,102257.39
2024-01-28T16:38:46.046Z,102261.70
2024-01-28T16:41:14.384Z,102264.77
2024-01-28T16:43:42.395Z,102266.84
2024-01-28T16:46:11.147Z,102269.84
2024-01-28T16:48:39.289Z,102273.67
2024-01-28T16:51:10.597Z,102274.38
2024-01-28T16:53:39.284Z,102274.38
2024-01-28T16:56:07.778Z,102279.87
2024-01-28T16:58:35.965Z,102279.81
2024-01-28T17:01:06.115Z,102283.43
2024-01-28T17:03:35.559Z,102286.39
2024-01-28T17:06:03.872Z,102284.98
2024-01-28T17:08:32.047Z,102287.52
2024-01-28T17:11:00.171Z,102280.39
2024-01-28T17:13:32.339Z,102277.53
2024-01-28T17:18:30.454Z,102280.58
2024-01-28T17:20:58.390Z,102286.42
2024-01-28T17:23:29.494Z,102293.44
2024-01-28T17:25:57.675Z,102295.63
2024-01-28T17:28:25.821Z,102296.77
2024-01-28T17:30:56.609Z,102296.05
2024-01-28T17:33:24.838Z,102295.85
2024-01-28T17:35:53.266Z,102298.34
2024-01-28T17:38:21.389Z,102302.36
2024-01-28T17:40:55.985Z,102306.89
2024-01-28T17:43:24.749Z,102308.69
2024-01-28T17:45:53.219Z,102309.14
2024-01-28T17:48:21.564Z,102315.64
2024-01-28T17:50:51.956Z,102320.11
2024-01-28T17:53:21.207Z,102324.59
2024-01-28T17:55:50.012Z,102326.48
2024-01-28T17:58:21.756Z,102330.97
2024-01-28T18:00:49.983Z,102330.79
2024-01-28T18:03:18.113Z,102331.83
2024-01-28T18:05:46.880Z,102330.15
2024-01-28T18:08:18.885Z,102334.16
2024-01-28T18:10:46.779Z,102336.95
2024-01-28T18:13:14.841Z,102340.98
2024-01-28T18:15:43.278Z,102347.17
2024-01-28T18:18:11.825Z,102352.14
2024-01-28T18:20:40.738Z,102353.31
2024-01-28T18:23:09.160Z,102352.91
2024-01-28T18:25:40.694Z,102355.63
2024-01-28T18:28:10.529Z,102355.42
2024-01-28T18:30:39.046Z,102351.42
2024-01-28T18:33:07.435Z,102345.19
2024-01-28T18:35:35.690Z,102345.79
2024-01-28T18:38:03.845Z,102341.75
2024-01-28T18:40:32.356Z,102341.34
2024-01-28T18:43:00.348Z,102341.94
2024-01-28T18:45:28.691Z,102344.28
2024-01-28T18:47:56.894Z,102344.13
2024-01-28T18:50:25.120Z,102342.61
2024-01-28T18:52:53.637Z,102340.07
2024-01-28T18:55:21.820Z,102340.80
2024-01-28T18:57:53.700Z,102337.63
2024-01-28T19:00:22.169Z,102333.70
2024-01-28T19:02:50.384Z,102342.55
2024-01-28T19:05:18.946Z,102344.38
2024-01-28T19:07:49.070Z,102343.63
2024-01-28T19:10:18.089Z,102346.66
2024-01-28T19:12:46.403Z,102345.92
2024-01-28T19:15:14.826Z,102345.03
2024-01-28T19:17:43.270Z,102345.70
2024-01-28T19:20:12.302Z,102349.02
2024-01-28T19:22:40.397Z,102345.52
2024-01-28T19:25:09.240Z,102344.95
2024-01-28T19:27:37.200Z,102343.16
2024-01-28T19:30:06.365Z,102340.73
2024-01-28T19:32:34.682Z,102340.86
2024-01-28T19:35:02.846Z,102346.16
2024-01-28T19:37:30.995Z,102343.33
2024-01-28T19:39:59.122Z,102345.75
2024-01-28T19:42:27.935Z,102351.36
2024-01-28T19:44:57.356Z,102357.52
2024-01-28T19:47:25.948Z,102364.55
2024-01-28T19:49:54.166Z,102368.66
2024-01-28T19:52:22.480Z,102367.77
2024-01-28T19:54:50.773Z,102363.64
2024-01-28T19:57:19.373Z,102360.48
2024-01-28T19:59:47.375Z,102357.33
2024-01-28T20:02:15.322Z,102359.71
2024-01-28T20:04:44.870Z,102360.37
2024-01-28T20:07:13.888Z,102360.81
2024-01-28T20:09:43.930Z,102361.80
2024-01-28T20:12:12.474Z,102365.86
2024-01-28T20:14:42.749Z,102367.05
2024-01-28T20:17:13.755Z,102371.20
2024-01-28T20:19:41.755Z,102378.91
2024-01-28T20:22:09.781Z,102385.09
2024-01-28T20:24:38.273Z,102383.80
2024-01-28T20:27:06.457Z,102383.70
2024-01-28T20:29:34.477Z,102380.37
2024-01-28T20:32:02.937Z,102378.44
2024-01-28T20:34:30.938Z,102380.63
2024-01-28T20:36:59.140Z,102382.30
2024-01-28T20:39:30.684Z,102382.69
2024-01-28T20:41:59.266Z,102383.40
2024-01-28T20:44:28.219Z,102386.23
2024-01-28T20:46:56.422Z,102384.80
2024-01-28T20:49:27.710Z,102379.59
2024-01-28T20:51:55.945Z,102378.73
2024-01-28T20:54:24.946Z,102375.76
2024-01-28T20:56:53.121Z,102377.16
2024-01-28T20:59:21.395Z,102374.80
2024-01-28T21:01:49.531Z,102371.29
2024-01-28T21:04:17.638Z,102368.14
2024-01-28T21:06:45.571Z,102362.71
2024-01-28T21:09:13.648Z,102360.89
2024-01-28T21:11:41.692Z,102361.72
2024-01-28T21:14:11.354Z,102361.61
2024-01-28T21:16:39.438Z,102362.66
2024-01-28T21:19:09.747Z,102368.20
2024-01-28T21:21:42.118Z,102369.84
2024-01-28T21:24:11.747Z,102370.88
2024-01-28T21:26:40.774Z,102373.84
2024-01-28T21:29:09.046Z,102374.03
2024-01-28T21:31:37.080Z,102375.95
2024-01-28T21:34:06.117Z,102385.15
2024-01-28T21:36:34.087Z,102385.21
2024-01-28T21:39:03.689Z,102384.17
2024-01-28T21:41:31.823Z,102385.70
2024-01-28T21:44:00.191Z,102388.33
2024-01-28T21:46:28.212Z,102395.61
2024-01-28T21:48:56.580Z,102394.20
2024-01-28T21:51:24.812Z,102397.36
2024-01-28T21:53:52.987Z,102398.09
2024-01-28T21:56:21.226Z,102397.91
2024-01-28T21:58:49.581Z,102397.52
2024-01-28T22:01:17.975Z,102396.60
2024-01-28T22:03:46.693Z,102397.14
2024-01-28T22:06:14.921Z,102395.92
2024-01-28T22:08:43.392Z,102397.36
2024-01-28T22:11:13.235Z,102395.36
2024-01-28T22:13:41.198Z,102391.47
2024-01-28T22:16:09.815Z,102395.56
2024-01-28T22:18:37.755Z,102393.66
2024-01-28T22:21:05.916Z,102397.04
2024-01-28T22:23:33.886Z,102399.38
2024-01-28T22:26:02.023Z,102401.77
2024-01-28T22:28:30.462Z,102397.23
2024-01-28T22:30:58.944Z,102397.71
2024-01-28T22:33:27.498Z,102401.56
2024-01-28T22:35:55.515Z,102404.80
2024-01-28T22:38:23.720Z,102404.77
2024-01-28T22:40:51.700Z,102408.16
2024-01-28T22:43:19.961Z,102409.15
2024-01-28T22:45:48.167Z,102404.26
2024-01-28T22:48:16.586Z,102407.45
2024-01-28T22:50:44.756Z,102405.66
2024-01-28T22:53:12.695Z,102401.97
2024-01-28T22:55:40.958Z,102401.50
2024-01-28T22:58:08.982Z,102404.10
2024-01-28T23:00:45.486Z,102403.29
2024-01-28T23:03:14.110Z,102397.73
2024-01-28T23:05:42.531Z,102399.58
2024-01-28T23:08:10.675Z,102404.55
2024-01-28T23:10:39.054Z,102404.64
2024-01-28T23:13:07.743Z,102412.03
2024-01-28T23:15:35.857Z,102415.52
2024-01-28T23:18:04.419Z,102417.02
2024-01-28T23:20:34.071Z,102411.73
2024-01-28T23:23:02.270Z,102408.75
2024-01-28T23:25:30.597Z,102409.63
2024-01-28T23:27:59.020Z,102406.33
2024-01-28T23:30:27.861Z,102406.43
2024-01-28T23:32:56.273Z,102405.38
2024-01-28T23:35:24.935Z,102404.81
2024-01-28T23:37:52.873Z,102404.27
2024-01-28T23:40:20.825Z,102412.40
2024-01-28T23:42:49.271Z,102415.86
2024-01-28T23:45:17.363Z,102412.58
2024-01-28T23:47:45.673Z,102410.96
2024-01-28T23:50:13.802Z,102412.20
2024-01-28T23:52:41.833Z,102419.29
2024-01-28T23:55:10.553Z,102422.98
2024-01-28T23:57:38.962Z,102429.69
